createdAt,value
2018-08-18T00:00:36.564Z,19.60
2018-08-18T00:03:06.248Z,19.60
2018-08-18T00:05:35.064Z,19.60
2018-08-18T00:08:04.023Z,19.60
2018-08-18T00:10:32.877Z,19.60
2018-08-18T00:13:01.627Z,19.50
2018-08-18T00:15:30.417Z,19.50
2018-08-18T00:17:59.164Z,19.50
2018-08-18T00:20:28.092Z,19.50
2018-08-18T00:22:56.888Z,19.50
2018-08-18T00:25:25.649Z,19.40
2018-08-18T00:27:55.784Z,19.40
2018-08-18T00:30:28.685Z,19.40
2018-08-18T00:32:57.394Z,19.30
2018-08-18T00:35:26.100Z,19.30
2018-08-18T00:37:54.825Z,19.30
2018-08-18T00:40:23.594Z,19.30
2018-08-18T00:42:52.240Z,19.30
2018-08-18T00:45:20.983Z,19.20
2018-08-18T00:47:50.531Z,19.20
2018-08-18T00:50:35.096Z,19.20
2018-08-18T00:53:04.955Z,19.10
2018-08-18T00:55:34.151Z,19.10
2018-08-18T00:58:03.008Z,19.00
2018-08-18T01:00:31.772Z,19.00
2018-08-18T01:03:01.196Z,19.00
2018-08-18T01:05:29.955Z,19.00
2018-08-18T01:07:58.675Z,18.90
2018-08-18T01:10:27.433Z,18.80
2018-08-18T01:12:56.149Z,18.80
2018-08-18T01:15:26.619Z,18.80
2018-08-18T01:17:55.741Z,18.70
2018-08-18T01:20:24.559Z,18.70
2018-08-18T01:22:59.881Z,18.70
2018-08-18T01:25:28.672Z,18.70
2018-08-18T01:27:57.436Z,18.60
2018-08-18T01:30:30.247Z,18.60
2018-08-18T01:32:58.928Z,18.60
2018-08-18T01:35:27.633Z,18.50
2018-08-18T01:37:56.357Z,18.40
2018-08-18T01:40:25.075Z,18.40
2018-08-18T01:42:53.798Z,18.30
2018-08-18T01:45:22.413Z,18.30
2018-08-18T01:47:51.102Z,18.30
2018-08-18T01:50:20.409Z,18.30
2018-08-18T01:52:49.080Z,18.30
2018-08-18T01:55:17.734Z,18.30
2018-08-18T01:57:47.631Z,18.20
2018-08-18T02:00:26.541Z,18.20
2018-08-18T02:02:55.330Z,18.10
2018-08-18T02:05:24.131Z,18.10
2018-08-18T02:07:52.829Z,18.00
2018-08-18T02:10:21.532Z,18.00
2018-08-18T02:13:02.211Z,18.00
2018-08-18T02:15:31.646Z,18.00
2018-08-18T02:18:00.380Z,18.00
2018-08-18T02:20:29.122Z,18.00
2018-08-18T02:22:57.842Z,18.00
2018-08-18T02:25:26.516Z,18.00
2018-08-18T02:27:55.155Z,17.90
2018-08-18T02:30:24.516Z,17.90
2018-08-18T02:32:53.286Z,17.80
2018-08-18T02:35:23.423Z,17.80
2018-08-18T02:37:52.196Z,17.70
2018-08-18T02:40:20.942Z,17.70
2018-08-18T02:42:49.676Z,17.70
2018-08-18T02:45:18.393Z,17.70
2018-08-18T02:47:47.204Z,17.70
2018-08-18T02:50:15.888Z,17.70
2018-08-18T02:52:44.571Z,17.70
2018-08-18T02:55:13.346Z,17.70
2018-08-18T02:57:43.355Z,17.70
2018-08-18T03:00:20.910Z,17.70
2018-08-18T03:02:49.658Z,17.70
2018-08-18T03:05:18.356Z,17.60
2018-08-18T03:07:51.435Z,17.60
2018-08-18T03:10:26.262Z,17.50
2018-08-18T03:12:58.376Z,17.50
2018-08-18T03:16:11.741Z,17.40
2018-08-18T03:18:52.955Z,17.40
2018-08-18T03:21:30.489Z,17.40
2018-08-18T03:24:19.905Z,17.40
2018-08-18T03:26:51.364Z,17.40
2018-08-18T03:29:21.059Z,17.30
2018-08-18T03:31:50.049Z,17.20
2018-08-18T03:34:19.058Z,17.10
2018-08-18T03:36:48.944Z,17.10
2018-08-18T03:39:29.703Z,17.10
2018-08-18T03:42:00.659Z,17.10
2018-08-18T03:44:40.744Z,17.00
2018-08-18T03:47:09.460Z,17.00
2018-08-18T03:49:38.204Z,17.00
2018-08-18T03:52:06.884Z,17.00
2018-08-18T03:54:35.581Z,17.00
2018-08-18T03:57:04.292Z,17.00
2018-08-18T03:59:33.084Z,17.00
2018-08-18T04:02:02.150Z,16.90
2018-08-18T04:04:32.220Z,16.90
2018-08-18T04:07:01.670Z,16.90
2018-08-18T04:09:31.459Z,16.80
2018-08-18T04:12:01.463Z,16.80
2018-08-18T04:14:35.288Z,16.80
2018-08-18T04:17:04.043Z,16.80
2018-08-18T04:19:32.810Z,16.80
2018-08-18T04:22:01.509Z,16.80
2018-08-18T04:24:36.357Z,16.70
2018-08-18T04:27:05.137Z,16.70
2018-08-18T04:29:33.848Z,16.70
2018-08-18T04:32:02.701Z,16.70
2018-08-18T04:34:31.429Z,16.60
2018-08-18T04:37:01.551Z,16.60
2018-08-18T04:39:30.219Z,16.60
2018-08-18T04:41:58.957Z,16.50
2018-08-18T04:44:27.595Z,16.50
2018-08-18T04:46:56.321Z,16.50
2018-08-18T04:49:24.979Z,16.50
2018-08-18T04:51:53.699Z,16.60
2018-08-18T04:54:22.425Z,16.60
2018-08-18T04:56:51.216Z,16.60
2018-08-18T04:59:20.263Z,16.60
2018-08-18T05:01:48.898Z,16.60
2018-08-18T05:04:17.604Z,16.60
2018-08-18T05:06:46.258Z,16.70
2018-08-18T05:09:15.444Z,16.70
2018-08-18T05:11:44.262Z,16.70
2018-08-18T05:14:12.939Z,16.70
2018-08-18T05:16:41.624Z,16.80
2018-08-18T05:19:10.297Z,16.80
2018-08-18T05:21:39.010Z,16.80
2018-08-18T05:24:21.224Z,16.80
2018-08-18T05:26:50.481Z,16.80
2018-08-18T05:29:19.216Z,16.90
2018-08-18T05:31:48.021Z,16.90
2018-08-18T05:34:16.822Z,16.90
2018-08-18T05:36:45.740Z,17.00
2018-08-18T05:39:14.427Z,17.10
2018-08-18T05:41:43.145Z,17.20
2018-08-18T05:44:11.890Z,17.20
2018-08-18T05:46:40.587Z,17.30
2018-08-18T05:49:15.012Z,17.40
2018-08-18T05:51:47.311Z,17.50
2018-08-18T05:54:18.220Z,17.50
2018-08-18T05:56:47.032Z,17.60
2018-08-18T05:59:15.781Z,17.70
2018-08-18T06:01:44.572Z,17.80
2018-08-18T06:04:17.399Z,17.80
2018-08-18T06:06:47.142Z,17.90
2018-08-18T06:09:18.027Z,18.00
2018-08-18T06:11:46.884Z,18.00
2018-08-18T06:14:16.098Z,18.20
2018-08-18T06:16:45.254Z,18.30
2018-08-18T06:19:14.144Z,18.50
2018-08-18T06:21:42.954Z,18.60
2018-08-18T06:24:12.138Z,18.80
2018-08-18T06:26:41.000Z,19.00
2018-08-18T06:29:09.837Z,19.00
2018-08-18T06:32:09.421Z,19.10
2018-08-18T06:34:38.126Z,19.10
2018-08-18T06:37:06.896Z,19.20
2018-08-18T06:39:50.137Z,19.30
2018-08-18T06:42:37.437Z,19.40
2018-08-18T06:45:09.441Z,19.40
2018-08-18T06:47:38.315Z,19.50
2018-08-18T06:50:08.800Z,19.50
2018-08-18T06:52:37.604Z,19.60
2018-08-18T06:55:07.338Z,19.70
2018-08-18T06:57:44.517Z,19.70
2018-08-18T07:00:17.553Z,19.70
2018-08-18T07:02:46.369Z,19.70
2018-08-18T07:05:16.623Z,19.70
2018-08-18T07:07:46.141Z,19.70
2018-08-18T07:10:31.336Z,19.80
2018-08-18T07:13:02.967Z,19.80
2018-08-18T07:15:33.237Z,19.90
2018-08-18T07:18:02.006Z,20.10
2018-08-18T07:20:30.868Z,20.30
2018-08-18T07:22:59.907Z,20.50
2018-08-18T07:25:29.078Z,20.60
2018-08-18T07:28:02.896Z,20.70
2018-08-18T07:30:32.292Z,20.80
2018-08-18T07:33:01.437Z,20.80
2018-08-18T07:35:30.220Z,21.00
2018-08-18T07:37:58.950Z,21.20
2018-08-18T07:40:33.602Z,21.40
2018-08-18T07:43:06.446Z,21.50
2018-08-18T07:45:41.345Z,21.60
2018-08-18T07:48:10.271Z,21.50
2018-08-18T07:50:39.092Z,21.50
2018-08-18T07:53:08.563Z,21.50
2018-08-18T07:55:37.623Z,21.80
2018-08-18T07:58:10.233Z,22.00
2018-08-18T08:00:39.800Z,21.90
2018-08-18T08:03:12.575Z,21.90
2018-08-18T08:05:41.486Z,21.60
2018-08-18T08:08:10.841Z,21.50
2018-08-18T08:10:39.667Z,21.80
2018-08-18T08:13:10.071Z,22.10
2018-08-18T08:15:39.086Z,22.30
2018-08-18T08:18:08.638Z,22.50
2018-08-18T08:20:37.361Z,22.60
2018-08-18T08:23:06.114Z,22.70
2018-08-18T08:25:34.895Z,22.80
2018-08-18T08:28:03.601Z,22.50
2018-08-18T08:30:32.403Z,22.20
2018-08-18T08:33:01.072Z,22.30
2018-08-18T08:35:29.825Z,22.60
2018-08-18T08:37:58.580Z,22.90
2018-08-18T08:40:27.232Z,23.10
2018-08-18T08:42:56.003Z,23.10
2018-08-18T08:45:25.142Z,23.10
2018-08-18T08:47:53.967Z,23.10
2018-08-18T08:50:24.133Z,23.00
2018-08-18T08:52:56.349Z,23.00
2018-08-18T08:55:26.476Z,23.20
2018-08-18T08:57:55.260Z,23.60
2018-08-18T09:00:23.993Z,23.70
2018-08-18T09:02:52.662Z,23.80
2018-08-18T09:05:21.556Z,23.70
2018-08-18T09:07:50.223Z,23.50
2018-08-18T09:10:19.062Z,23.50
2018-08-18T09:12:47.673Z,23.70
2018-08-18T09:15:17.390Z,24.00
2018-08-18T09:17:46.152Z,24.40
2018-08-18T09:20:18.113Z,24.90
2018-08-18T09:22:56.862Z,25.50
2018-08-18T09:25:28.421Z,26.20
2018-08-18T09:27:58.281Z,26.80
2018-08-18T09:30:28.300Z,27.20
2018-08-18T09:33:05.408Z,26.50
2018-08-18T09:35:50.586Z,26.00
2018-08-18T09:38:19.368Z,25.70
2018-08-18T09:40:48.300Z,25.60
2018-08-18T09:43:22.124Z,25.80
2018-08-18T09:45:51.117Z,26.40
2018-08-18T09:48:19.932Z,26.70
2018-08-18T09:50:49.125Z,27.00
2018-08-18T09:53:18.067Z,27.40
2018-08-18T09:55:47.125Z,27.10
2018-08-18T09:58:15.940Z,26.60
2018-08-18T10:00:44.847Z,26.30
2018-08-18T10:03:13.557Z,26.80
2018-08-18T10:05:42.417Z,27.00
2018-08-18T10:08:11.308Z,27.10
2018-08-18T10:10:40.280Z,27.40
2018-08-18T10:13:09.213Z,27.70
2018-08-18T10:15:38.061Z,28.30
2018-08-18T10:18:06.861Z,28.80
2018-08-18T10:20:40.770Z,29.40
2018-08-18T10:23:23.068Z,29.90
2018-08-18T10:25:53.108Z,30.30
2018-08-18T10:28:23.287Z,29.40
2018-08-18T10:30:53.672Z,29.10
2018-08-18T10:33:24.979Z,29.30
2018-08-18T10:35:55.977Z,29.60
2018-08-18T10:38:24.793Z,29.90
2018-08-18T10:40:53.554Z,30.20
2018-08-18T10:43:22.210Z,30.30
2018-08-18T10:45:50.895Z,30.50
2018-08-18T10:48:19.548Z,31.00
2018-08-18T10:51:20.217Z,31.60
2018-08-18T10:53:50.053Z,32.20
2018-08-18T10:56:18.864Z,32.40
2018-08-18T10:59:34.181Z,32.60
2018-08-18T11:02:05.903Z,31.80
2018-08-18T11:04:35.738Z,31.10
2018-08-18T11:07:05.197Z,30.90
2018-08-18T11:09:34.889Z,30.40
2018-08-18T11:12:04.249Z,30.50
2018-08-18T11:14:32.929Z,30.70
2018-08-18T11:17:02.452Z,30.00
2018-08-18T11:19:31.163Z,30.30
2018-08-18T11:24:07.505Z,30.40
2018-08-18T11:26:38.247Z,29.80
2018-08-18T11:29:13.953Z,28.40
2018-08-18T11:31:42.853Z,28.20
2018-08-18T11:34:11.598Z,28.40
2018-08-18T11:36:55.716Z,28.60
2018-08-18T11:39:24.407Z,29.10
2018-08-18T11:41:53.159Z,28.70
2018-08-18T11:44:21.817Z,28.50
2018-08-18T11:46:50.541Z,28.90
2018-08-18T11:49:20.105Z,29.10
2018-08-18T11:51:48.998Z,29.70
2018-08-18T11:54:17.699Z,30.50
2018-08-18T11:56:51.465Z,30.50
2018-08-18T11:59:20.192Z,30.60
2018-08-18T12:01:51.452Z,30.70
2018-08-18T12:04:21.325Z,31.10
2018-08-18T12:06:55.931Z,31.20
2018-08-18T12:09:24.824Z,31.00
2018-08-18T12:11:53.516Z,30.40
2018-08-18T12:14:22.513Z,29.80
2018-08-18T12:16:51.751Z,29.60
2018-08-18T12:19:20.557Z,29.80
2018-08-18T12:21:49.317Z,29.60
2018-08-18T12:24:23.155Z,29.30
2018-08-18T12:27:06.014Z,29.00
2018-08-18T12:29:34.752Z,28.90
2018-08-18T12:32:03.685Z,28.80
2018-08-18T12:34:32.353Z,29.10
2018-08-18T12:37:01.134Z,29.40
2018-08-18T12:39:29.776Z,30.20
2018-08-18T12:41:58.440Z,30.70
2018-08-18T12:44:31.291Z,31.20
2018-08-18T12:47:02.690Z,31.70
2018-08-18T12:49:32.081Z,32.10
2018-08-18T12:52:00.780Z,32.50
2018-08-18T12:54:29.490Z,31.60
2018-08-18T12:56:59.111Z,30.80
2018-08-18T12:59:27.897Z,30.10
2018-08-18T13:01:56.680Z,30.50
2018-08-18T13:04:25.477Z,31.40
2018-08-18T13:06:54.522Z,32.30
2018-08-18T13:09:24.756Z,32.90
2018-08-18T13:11:54.702Z,32.30
2018-08-18T13:14:26.793Z,31.60
2018-08-18T13:16:55.557Z,31.10
2018-08-18T13:19:26.165Z,31.00
2018-08-18T13:21:54.891Z,31.30
2018-08-18T13:24:23.552Z,32.10
2018-08-18T13:26:52.278Z,32.20
2018-08-18T13:29:21.008Z,33.00
2018-08-18T13:31:49.743Z,33.40
2018-08-18T13:34:19.134Z,33.50
2018-08-18T13:36:48.152Z,34.20
2018-08-18T13:39:18.249Z,35.80
2018-08-18T13:41:47.882Z,37.70
2018-08-18T13:44:30.975Z,39.00
2018-08-18T13:46:59.658Z,38.60
2018-08-18T13:49:28.553Z,37.30
2018-08-18T13:51:57.313Z,37.20
2018-08-18T13:54:26.033Z,38.50
2018-08-18T13:56:54.723Z,39.90
2018-08-18T13:59:38.656Z,40.20
2018-08-18T14:02:07.729Z,40.00
2018-08-18T14:04:36.540Z,40.20
2018-08-18T14:07:05.257Z,41.20
2018-08-18T14:09:33.937Z,42.00
2018-08-18T14:12:07.857Z,42.90
2018-08-18T14:14:36.508Z,41.20
2018-08-18T14:17:05.195Z,37.50
2018-08-18T14:19:33.885Z,35.40
2018-08-18T14:22:07.294Z,34.90
2018-08-18T14:24:37.033Z,35.60
2018-08-18T14:27:12.872Z,35.40
2018-08-18T14:29:41.533Z,33.90
2018-08-18T14:32:15.839Z,33.30
2018-08-18T14:34:51.546Z,33.70
2018-08-18T14:37:20.969Z,33.80
2018-08-18T14:39:49.729Z,33.80
2018-08-18T14:42:18.467Z,35.30
2018-08-18T14:44:47.232Z,36.00
2018-08-18T14:47:15.884Z,35.70
2018-08-18T14:49:44.580Z,35.90
2018-08-18T14:52:13.349Z,36.50
2018-08-18T14:54:41.992Z,37.40
2018-08-18T14:57:10.761Z,38.00
2018-08-18T14:59:39.444Z,38.50
2018-08-18T15:02:08.589Z,37.30
2018-08-18T15:04:37.233Z,36.10
2018-08-18T15:07:05.945Z,35.70
2018-08-18T15:09:42.802Z,35.70
2018-08-18T15:12:11.559Z,35.70
2018-08-18T15:14:40.291Z,35.80
2018-08-18T15:17:09.074Z,35.90
2018-08-18T15:19:38.008Z,36.30
2018-08-18T15:22:11.032Z,35.90
2018-08-18T15:24:40.620Z,36.00
2018-08-18T15:27:09.408Z,36.50
2018-08-18T15:29:38.101Z,37.40
2018-08-18T15:32:06.848Z,37.60
2018-08-18T15:34:42.111Z,37.00
2018-08-18T15:37:11.934Z,36.50
2018-08-18T15:39:40.617Z,36.20
2018-08-18T15:42:09.463Z,35.60
2018-08-18T15:44:47.009Z,36.00
2018-08-18T15:47:15.677Z,37.20
2018-08-18T15:49:44.572Z,37.70
2018-08-18T15:52:14.539Z,37.10
2018-08-18T15:54:43.270Z,37.30
2018-08-18T15:57:12.521Z,37.20
2018-08-18T15:59:41.164Z,37.40
2018-08-18T16:02:09.907Z,38.40
2018-08-18T16:04:38.653Z,39.30
2018-08-18T16:07:09.457Z,39.00
2018-08-18T16:09:38.189Z,38.10
2018-08-18T16:12:06.918Z,38.10
2018-08-18T16:14:35.596Z,37.30
2018-08-18T16:17:04.306Z,36.30
2018-08-18T16:19:34.421Z,35.70
2018-08-18T16:22:03.751Z,35.50
2018-08-18T16:24:34.862Z,35.00
2018-08-18T16:27:07.165Z,34.50
2018-08-18T16:29:36.315Z,34.40
2018-08-18T16:32:18.067Z,34.80
2018-08-18T16:34:48.104Z,34.80
2018-08-18T16:37:16.904Z,34.80
2018-08-18T16:39:45.739Z,34.90
2018-08-18T16:42:15.106Z,34.90
2018-08-18T16:44:43.819Z,34.40
2018-08-18T16:47:12.528Z,34.40
2018-08-18T16:49:41.228Z,34.20
2018-08-18T16:52:10.105Z,34.00
2018-08-18T16:54:38.824Z,33.90
2018-08-18T16:57:07.607Z,33.80
2018-08-18T16:59:37.021Z,33.60
2018-08-18T17:02:06.769Z,33.30
2018-08-18T17:04:35.508Z,32.90
2018-08-18T17:07:09.922Z,32.50
2018-08-18T17:09:41.516Z,32.10
2018-08-18T17:12:18.271Z,31.90
2018-08-18T17:14:46.962Z,32.20
2018-08-18T17:17:15.671Z,32.00
2018-08-18T17:19:44.363Z,31.70
2018-08-18T17:22:14.879Z,31.40
2018-08-18T17:24:43.565Z,31.50
2018-08-18T17:27:12.346Z,31.40
2018-08-18T17:29:45.653Z,31.20
2018-08-18T17:32:14.348Z,30.80
2018-08-18T17:34:43.012Z,30.70
2018-08-18T17:37:11.737Z,30.50
2018-08-18T17:39:40.462Z,30.30
2018-08-18T17:42:09.247Z,30.50
2018-08-18T17:44:37.973Z,30.50
2018-08-18T17:47:09.077Z,30.50
2018-08-18T17:49:43.887Z,30.40
2018-08-18T17:52:12.609Z,30.30
2018-08-18T17:54:41.436Z,30.10
2018-08-18T17:57:10.225Z,29.90
2018-08-18T17:59:39.025Z,29.70
2018-08-18T18:02:13.257Z,29.10
2018-08-18T18:04:42.012Z,28.60
2018-08-18T18:07:11.663Z,28.00
2018-08-18T18:09:40.397Z,27.60
2018-08-18T18:12:25.833Z,27.20
2018-08-18T18:14:54.935Z,27.00
2018-08-18T18:17:24.210Z,26.70
2018-08-18T18:19:53.984Z,26.40
2018-08-18T18:22:22.677Z,26.00
2018-08-18T18:24:51.362Z,25.80
2018-08-18T18:27:20.061Z,25.40
2018-08-18T18:29:48.781Z,25.30
2018-08-18T18:32:17.576Z,25.10
2018-08-18T18:34:47.661Z,25.10
2018-08-18T18:37:16.233Z,25.00
2018-08-18T18:39:58.918Z,24.90
2018-08-18T18:42:27.844Z,24.80
2018-08-18T18:44:57.237Z,24.70
2018-08-18T18:47:25.961Z,24.60
2018-08-18T18:49:54.639Z,24.40
2018-08-18T18:52:23.413Z,24.40
2018-08-18T18:54:52.381Z,24.40
2018-08-18T18:57:21.275Z,24.40
2018-08-18T18:59:54.931Z,24.50
2018-08-18T19:02:28.505Z,24.50
2018-08-18T19:04:57.178Z,24.50
2018-08-18T19:07:25.888Z,24.40
2018-08-18T19:09:59.791Z,24.40
2018-08-18T19:12:28.713Z,24.30
2018-08-18T19:14:57.525Z,24.20
2018-08-18T19:17:26.225Z,24.00
2018-08-18T19:20:05.387Z,23.90
2018-08-18T19:22:34.104Z,23.80
2018-08-18T19:25:02.789Z,23.70
2018-08-18T19:27:31.542Z,23.60
2018-08-18T19:30:00.593Z,23.60
2018-08-18T19:32:29.297Z,23.60
2018-08-18T19:34:57.997Z,23.60
2018-08-18T19:37:26.788Z,23.50
2018-08-18T19:39:55.840Z,23.40
2018-08-18T19:42:24.572Z,23.30
2018-08-18T19:45:12.872Z,23.20
2018-08-18T19:47:41.722Z,23.10
2018-08-18T19:50:10.988Z,23.10
2018-08-18T19:52:39.745Z,23.00
2018-08-18T19:55:10.992Z,22.90
2018-08-18T19:57:40.461Z,22.80
2018-08-18T20:00:17.904Z,22.80
2018-08-18T20:02:59.071Z,22.70
2018-08-18T20:05:28.037Z,22.70
2018-08-18T20:07:57.041Z,22.60
2018-08-18T20:10:25.738Z,22.50
2018-08-18T20:12:54.506Z,22.40
2018-08-18T20:15:23.229Z,22.50
2018-08-18T20:17:51.917Z,22.40
2018-08-18T20:20:23.507Z,22.40
2018-08-18T20:22:53.077Z,22.40
2018-08-18T20:25:21.718Z,22.30
2018-08-18T20:27:50.384Z,22.30
2018-08-18T20:30:19.117Z,22.30
2018-08-18T20:32:47.942Z,22.20
2018-08-18T20:35:16.841Z,22.20
2018-08-18T20:37:45.648Z,22.20
2018-08-18T20:40:15.211Z,22.30
2018-08-18T20:42:44.727Z,22.30
2018-08-18T20:45:14.542Z,22.20
2018-08-18T20:47:44.823Z,22.20
2018-08-18T20:50:14.265Z,22.20
2018-08-18T20:52:43.124Z,22.10
2018-08-18T20:55:12.006Z,22.10
2018-08-18T20:57:40.735Z,22.10
2018-08-18T21:00:11.032Z,22.10
2018-08-18T21:02:39.712Z,22.10
2018-08-18T21:05:10.510Z,22.10
2018-08-18T21:07:39.273Z,22.10
2018-08-18T21:10:09.540Z,22.10
2018-08-18T21:12:45.922Z,22.10
2018-08-18T21:15:15.415Z,22.00
2018-08-18T21:17:44.110Z,22.00
2018-08-18T21:20:15.007Z,22.00
2018-08-18T21:22:43.786Z,22.00
2018-08-18T21:25:13.428Z,22.00
2018-08-18T21:27:42.699Z,22.00
2018-08-18T21:30:16.918Z,22.00
2018-08-18T21:32:45.664Z,21.90
2018-08-18T21:35:15.124Z,21.90
2018-08-18T21:37:43.918Z,21.90
2018-08-18T21:40:12.712Z,21.90
2018-08-18T21:42:41.410Z,21.90
2018-08-18T21:45:12.332Z,21.90
2018-08-18T21:47:40.994Z,21.80
2018-08-18T21:50:09.778Z,21.80
2018-08-18T21:52:38.759Z,21.70
2018-08-18T21:55:07.471Z,21.70
2018-08-18T21:57:51.464Z,21.60
2018-08-18T22:00:20.309Z,21.60
2018-08-18T22:02:49.042Z,21.50
2018-08-18T22:05:17.789Z,21.50
2018-08-18T22:07:52.449Z,21.40
2018-08-18T22:10:21.685Z,21.40
2018-08-18T22:12:50.524Z,21.40
2018-08-18T22:15:20.164Z,21.40
2018-08-18T22:17:49.993Z,21.30
2018-08-18T22:20:20.129Z,21.20
2018-08-18T22:22:48.920Z,21.10
2018-08-18T22:25:17.650Z,21.00
2018-08-18T22:27:46.408Z,21.00
2018-08-18T22:30:16.432Z,21.00
2018-08-18T22:32:46.017Z,20.90
2018-08-18T22:35:15.019Z,20.90
2018-08-18T22:37:43.728Z,20.80
2018-08-18T22:40:13.391Z,20.80
2018-08-18T22:42:42.104Z,20.70
2018-08-18T22:45:27.579Z,20.70
2018-08-18T22:47:56.514Z,20.60
2018-08-18T22:50:25.357Z,20.60
2018-08-18T22:52:54.815Z,20.50
2018-08-18T22:55:23.711Z,20.40
2018-08-18T22:57:57.577Z,20.30
2018-08-18T23:00:26.381Z,20.20
2018-08-18T23:02:55.181Z,20.10
2018-08-18T23:05:23.905Z,20.10
2018-08-18T23:07:55.340Z,20.10
2018-08-18T23:10:27.928Z,20.00
2018-08-18T23:12:56.592Z,20.00
2018-08-18T23:15:25.674Z,19.90
2018-08-18T23:17:54.552Z,19.80
2018-08-18T23:20:23.600Z,19.70
2018-08-18T23:22:58.973Z,19.70
2018-08-18T23:25:29.285Z,19.70
2018-08-18T23:27:58.552Z,19.80
2018-08-18T23:30:33.246Z,19.80
2018-08-18T23:33:03.487Z,19.80
2018-08-18T23:35:32.467Z,19.70
2018-08-18T23:38:01.564Z,19.60
2018-08-18T23:40:30.330Z,19.50
2018-08-18T23:42:59.066Z,19.40
2018-08-18T23:45:37.048Z,19.30
2018-08-18T23:48:09.768Z,19.30
2018-08-18T23:50:39.830Z,19.30
2018-08-18T23:53:13.558Z,19.30
2018-08-18T23:55:54.844Z,19.30
2018-08-18T23:58:23.610Z,19.30
